sensor_id;sensor_type;location;lat;lon;timestamp;temperature;humidity
35559;DHT22;21661;50.794;-1.066;2023-06-10T00:01:25;19.90;99.90
35559;DHT22;21661;50.794;-1.066;2023-06-10T00:03:51;19.80;99.90
35559;DHT22;21661;50.794;-1.066;2023-06-10T00:06:19;19.80;99.90
35559;DHT22;21661;50.794;-1.066;2023-06-10T00:08:47;19.70;99.90
35559;DHT22;21661;50.794;-1.066;2023-06-10T00:11:13;19.80;99.90
35559;DHT22;21661;50.794;-1.066;2023-06-10T00:13:39;19.70;99.90
35559;DHT22;21661;50.794;-1.066;2023-06-10T00:16:05;19.80;99.90
35559;DHT22;21661;50.794;-1.066;2023-06-10T00:18:31;19.70;99.90
35559;DHT22;21661;50.794;-1.066;2023-06-10T00:20:57;19.70;99.90
35559;DHT22;21661;50.794;-1.066;2023-06-10T00:23:29;19.70;99.90
35559;DHT22;21661;50.794;-1.066;2023-06-10T00:25:59;19.70;99.90
35559;DHT22;21661;50.794;-1.066;2023-06-10T00:28:25;19.60;99.90
35559;DHT22;21661;50.794;-1.066;2023-06-10T00:30:51;19.60;99.90
35559;DHT22;21661;50.794;-1.066;2023-06-10T00:33:17;19.60;99.90
35559;DHT22;21661;50.794;-1.066;2023-06-10T00:35:42;19.60;99.90
35559;DHT22;21661;50.794;-1.066;2023-06-10T00:38:08;19.50;99.90
35559;DHT22;21661;50.794;-1.066;2023-06-10T00:40:39;19.50;99.90
35559;DHT22;21661;50.794;-1.066;2023-06-10T00:43:05;19.50;99.90
35559;DHT22;21661;50.794;-1.066;2023-06-10T00:45:31;19.50;99.90
35559;DHT22;21661;50.794;-1.066;2023-06-10T00:47:57;19.50;99.90
35559;DHT22;21661;50.794;-1.066;2023-06-10T00:50:23;19.50;99.90
35559;DHT22;21661;50.794;-1.066;2023-06-10T00:52:48;19.40;99.90
35559;DHT22;21661;50.794;-1.066;2023-06-10T00:55:16;19.30;99.90
35559;DHT22;21661;50.794;-1.066;2023-06-10T00:57:44;19.30;99.90
35559;DHT22;21661;50.794;-1.066;2023-06-10T01:00:11;19.30;99.90
35559;DHT22;21661;50.794;-1.066;2023-06-10T01:02:37;19.40;99.90
35559;DHT22;21661;50.794;-1.066;2023-06-10T01:05:03;19.30;99.90
35559;DHT22;21661;50.794;-1.066;2023-06-10T01:08:00;19.30;99.90
35559;DHT22;21661;50.794;-1.066;2023-06-10T01:10:53;19.20;99.90
35559;DHT22;21661;50.794;-1.066;2023-06-10T01:13:22;19.20;99.90
35559;DHT22;21661;50.794;-1.066;2023-06-10T01:15:50;19.20;99.90
35559;DHT22;21661;50.794;-1.066;2023-06-10T01:18:15;19.10;99.90
35559;DHT22;21661;50.794;-1.066;2023-06-10T01:20:42;19.20;99.90
35559;DHT22;21661;50.794;-1.066;2023-06-10T01:23:09;19.10;99.90
35559;DHT22;21661;50.794;-1.066;2023-06-10T01:25:40;19.10;99.90
35559;DHT22;21661;50.794;-1.066;2023-06-10T01:28:13;19.10;99.90
35559;DHT22;21661;50.794;-1.066;2023-06-10T01:33:17;19.00;99.90
35559;DHT22;21661;50.794;-1.066;2023-06-10T01:35:44;19.00;99.90
35559;DHT22;21661;50.794;-1.066;2023-06-10T01:38:14;19.00;99.90
35559;DHT22;21661;50.794;-1.066;2023-06-10T01:40:42;19.00;99.90
35559;DHT22;21661;50.794;-1.066;2023-06-10T01:43:07;18.90;99.90
35559;DHT22;21661;50.794;-1.066;2023-06-10T01:45:33;19.00;99.90
35559;DHT22;21661;50.794;-1.066;2023-06-10T01:47:59;18.90;99.90
35559;DHT22;21661;50.794;-1.066;2023-06-10T01:50:25;18.90;99.90
35559;DHT22;21661;50.794;-1.066;2023-06-10T01:52:50;18.90;99.90
35559;DHT22;21661;50.794;-1.066;2023-06-10T01:55:16;18.90;99.90
35559;DHT22;21661;50.794;-1.066;2023-06-10T01:57:41;18.90;99.90
35559;DHT22;21661;50.794;-1.066;2023-06-10T02:00:07;18.90;99.90
35559;DHT22;21661;50.794;-1.066;2023-06-10T02:02:33;18.80;99.90
35559;DHT22;21661;50.794;-1.066;2023-06-10T02:04:59;18.80;99.90
35559;DHT22;21661;50.794;-1.066;2023-06-10T02:07:25;18.80;99.90
35559;DHT22;21661;50.794;-1.066;2023-06-10T02:09:51;18.70;99.90
35559;DHT22;21661;50.794;-1.066;2023-06-10T02:12:16;18.70;99.90
35559;DHT22;21661;50.794;-1.066;2023-06-10T02:14:42;18.70;99.90
35559;DHT22;21661;50.794;-1.066;2023-06-10T02:17:07;18.60;99.90
35559;DHT22;21661;50.794;-1.066;2023-06-10T02:19:38;18.60;99.90
35559;DHT22;21661;50.794;-1.066;2023-06-10T02:22:08;18.60;99.90
35559;DHT22;21661;50.794;-1.066;2023-06-10T02:24:35;18.60;99.90
35559;DHT22;21661;50.794;-1.066;2023-06-10T02:27:00;18.50;99.90
35559;DHT22;21661;50.794;-1.066;2023-06-10T02:29:26;18.50;99.90
35559;DHT22;21661;50.794;-1.066;2023-06-10T02:31:52;18.50;99.90
35559;DHT22;21661;50.794;-1.066;2023-06-10T02:34:18;18.50;99.90
35559;DHT22;21661;50.794;-1.066;2023-06-10T02:36:44;18.50;99.90
35559;DHT22;21661;50.794;-1.066;2023-06-10T02:39:09;18.50;99.90
35559;DHT22;21661;50.794;-1.066;2023-06-10T02:41:35;18.50;99.90
35559;DHT22;21661;50.794;-1.066;2023-06-10T02:44:01;18.50;99.90
35559;DHT22;21661;50.794;-1.066;2023-06-10T02:46:27;18.40;99.90
35559;DHT22;21661;50.794;-1.066;2023-06-10T02:48:54;18.40;99.90
35559;DHT22;21661;50.794;-1.066;2023-06-10T02:51:19;18.30;99.90
35559;DHT22;21661;50.794;-1.066;2023-06-10T02:53:46;18.30;99.90
35559;DHT22;21661;50.794;-1.066;2023-06-10T02:56:12;18.30;99.90
35559;DHT22;21661;50.794;-1.066;2023-06-10T02:58:38;18.30;99.90
35559;DHT22;21661;50.794;-1.066;2023-06-10T03:01:03;18.30;99.90
35559;DHT22;21661;50.794;-1.066;2023-06-10T03:03:29;18.30;99.90
35559;DHT22;21661;50.794;-1.066;2023-06-10T03:05:56;18.30;99.90
35559;DHT22;21661;50.794;-1.066;2023-06-10T03:08:22;18.30;99.90
35559;DHT22;21661;50.794;-1.066;2023-06-10T03:10:47;18.20;99.90
35559;DHT22;21661;50.794;-1.066;2023-06-10T03:13:13;18.20;99.90
35559;DHT22;21661;50.794;-1.066;2023-06-10T03:15:39;18.20;99.90
35559;DHT22;21661;50.794;-1.066;2023-06-10T03:18:06;18.20;99.90
35559;DHT22;21661;50.794;-1.066;2023-06-10T03:20:32;18.10;99.90
35559;DHT22;21661;50.794;-1.066;2023-06-10T03:23:02;18.10;99.90
35559;DHT22;21661;50.794;-1.066;2023-06-10T03:25:27;18.10;99.90
35559;DHT22;21661;50.794;-1.066;2023-06-10T03:27:54;18.00;99.90
35559;DHT22;21661;50.794;-1.066;2023-06-10T03:30:19;18.00;99.90
35559;DHT22;21661;50.794;-1.066;2023-06-10T03:32:45;18.00;99.90
35559;DHT22;21661;50.794;-1.066;2023-06-10T03:35:11;18.00;99.90
35559;DHT22;21661;50.794;-1.066;2023-06-10T03:37:37;17.90;99.90
35559;DHT22;21661;50.794;-1.066;2023-06-10T03:40:03;18.00;99.90
35559;DHT22;21661;50.794;-1.066;2023-06-10T03:42:29;17.90;99.90
35559;DHT22;21661;50.794;-1.066;2023-06-10T03:44:55;17.90;99.90
35559;DHT22;21661;50.794;-1.066;2023-06-10T03:47:21;17.80;99.90
35559;DHT22;21661;50.794;-1.066;2023-06-10T03:49:47;17.80;99.90
35559;DHT22;21661;50.794;-1.066;2023-06-10T03:52:12;17.80;99.90
35559;DHT22;21661;50.794;-1.066;2023-06-10T03:54:38;17.70;99.90
35559;DHT22;21661;50.794;-1.066;2023-06-10T03:57:04;17.70;99.90
35559;DHT22;21661;50.794;-1.066;2023-06-10T03:59:31;17.70;99.90
35559;DHT22;21661;50.794;-1.066;2023-06-10T04:01:56;17.70;99.90
35559;DHT22;21661;50.794;-1.066;2023-06-10T04:04:23;17.70;99.90
35559;DHT22;21661;50.794;-1.066;2023-06-10T04:06:49;17.70;99.90
35559;DHT22;21661;50.794;-1.066;2023-06-10T04:09:15;17.70;99.90
35559;DHT22;21661;50.794;-1.066;2023-06-10T04:11:41;17.70;99.90
35559;DHT22;21661;50.794;-1.066;2023-06-10T04:14:07;17.70;99.90
35559;DHT22;21661;50.794;-1.066;2023-06-10T04:16:33;17.60;99.90
35559;DHT22;21661;50.794;-1.066;2023-06-10T04:19:00;17.50;99.90
35559;DHT22;21661;50.794;-1.066;2023-06-10T04:21:26;17.50;99.90
35559;DHT22;21661;50.794;-1.066;2023-06-10T04:23:52;17.50;99.90
35559;DHT22;21661;50.794;-1.066;2023-06-10T04:26:17;17.50;99.90
35559;DHT22;21661;50.794;-1.066;2023-06-10T04:28:43;17.60;99.90
35559;DHT22;21661;50.794;-1.066;2023-06-10T04:31:09;17.50;99.90
35559;DHT22;21661;50.794;-1.066;2023-06-10T04:33:35;17.50;99.90
35559;DHT22;21661;50.794;-1.066;2023-06-10T04:36:01;17.50;99.90
35559;DHT22;21661;50.794;-1.066;2023-06-10T04:38:26;17.40;99.90
35559;DHT22;21661;50.794;-1.066;2023-06-10T04:40:52;17.40;99.90
35559;DHT22;21661;50.794;-1.066;2023-06-10T04:43:18;17.40;99.90
35559;DHT22;21661;50.794;-1.066;2023-06-10T04:45:44;17.40;99.90
35559;DHT22;21661;50.794;-1.066;2023-06-10T04:48:12;17.40;99.90
35559;DHT22;21661;50.794;-1.066;2023-06-10T04:50:38;17.50;99.90
35559;DHT22;21661;50.794;-1.066;2023-06-10T04:53:04;17.40;99.90
35559;DHT22;21661;50.794;-1.066;2023-06-10T04:55:30;17.40;99.90
35559;DHT22;21661;50.794;-1.066;2023-06-10T04:57:55;17.40;99.90
35559;DHT22;21661;50.794;-1.066;2023-06-10T05:00:21;17.40;99.90
35559;DHT22;21661;50.794;-1.066;2023-06-10T05:02:47;17.40;99.90
35559;DHT22;21661;50.794;-1.066;2023-06-10T05:05:17;17.40;99.90
35559;DHT22;21661;50.794;-1.066;2023-06-10T05:07:42;17.40;99.90
35559;DHT22;21661;50.794;-1.066;2023-06-10T05:10:08;17.50;99.90
35559;DHT22;21661;50.794;-1.066;2023-06-10T05:12:34;17.50;99.90
35559;DHT22;21661;50.794;-1.066;2023-06-10T05:14:59;17.50;99.90
35559;DHT22;21661;50.794;-1.066;2023-06-10T05:17:25;17.50;99.90
35559;DHT22;21661;50.794;-1.066;2023-06-10T05:19:51;17.50;99.90
35559;DHT22;21661;50.794;-1.066;2023-06-10T05:22:17;17.50;99.90
35559;DHT22;21661;50.794;-1.066;2023-06-10T05:24:44;17.50;99.90
35559;DHT22;21661;50.794;-1.066;2023-06-10T05:27:10;17.60;99.90
35559;DHT22;21661;50.794;-1.066;2023-06-10T05:29:35;17.60;99.90
35559;DHT22;21661;50.794;-1.066;2023-06-10T05:32:01;17.60;99.90
35559;DHT22;21661;50.794;-1.066;2023-06-10T05:34:31;17.60;99.90
35559;DHT22;21661;50.794;-1.066;2023-06-10T05:36:57;17.60;99.90
35559;DHT22;21661;50.794;-1.066;2023-06-10T05:39:23;17.70;99.90
35559;DHT22;21661;50.794;-1.066;2023-06-10T05:41:48;17.70;99.90
35559;DHT22;21661;50.794;-1.066;2023-06-10T05:44:14;17.70;99.90
35559;DHT22;21661;50.794;-1.066;2023-06-10T05:46:39;17.70;99.90
35559;DHT22;21661;50.794;-1.066;2023-06-10T05:49:05;17.70;99.90
35559;DHT22;21661;50.794;-1.066;2023-06-10T05:51:30;17.80;99.90
35559;DHT22;21661;50.794;-1.066;2023-06-10T05:53:56;17.80;99.90
35559;DHT22;21661;50.794;-1.066;2023-06-10T05:56:22;17.80;99.90
35559;DHT22;21661;50.794;-1.066;2023-06-10T05:58:48;17.90;99.90
35559;DHT22;21661;50.794;-1.066;2023-06-10T06:01:14;18.00;99.90
35559;DHT22;21661;50.794;-1.066;2023-06-10T06:03:39;18.00;99.90
35559;DHT22;21661;50.794;-1.066;2023-06-10T06:06:05;18.10;99.90
35559;DHT22;21661;50.794;-1.066;2023-06-10T06:08:31;18.10;99.90
35559;DHT22;21661;50.794;-1.066;2023-06-10T06:10:57;18.10;99.90
35559;DHT22;21661;50.794;-1.066;2023-06-10T06:13:22;18.20;99.90
35559;DHT22;21661;50.794;-1.066;2023-06-10T06:15:48;18.30;99.90
35559;DHT22;21661;50.794;-1.066;2023-06-10T06:18:14;18.30;99.90
35559;DHT22;21661;50.794;-1.066;2023-06-10T06:20:40;18.30;99.90
35559;DHT22;21661;50.794;-1.066;2023-06-10T06:23:05;18.30;99.90
35559;DHT22;21661;50.794;-1.066;2023-06-10T06:25:31;18.40;99.90
35559;DHT22;21661;50.794;-1.066;2023-06-10T06:27:57;18.40;99.90
35559;DHT22;21661;50.794;-1.066;2023-06-10T06:30:22;18.60;99.90
35559;DHT22;21661;50.794;-1.066;2023-06-10T06:32:48;18.60;99.90
35559;DHT22;21661;50.794;-1.066;2023-06-10T06:35:13;18.60;99.90
35559;DHT22;21661;50.794;-1.066;2023-06-10T06:37:39;18.70;99.90
35559;DHT22;21661;50.794;-1.066;2023-06-10T06:40:05;18.80;99.90
35559;DHT22;21661;50.794;-1.066;2023-06-10T06:42:31;18.80;99.90
35559;DHT22;21661;50.794;-1.066;2023-06-10T06:44:56;18.90;99.90
35559;DHT22;21661;50.794;-1.066;2023-06-10T06:47:22;19.00;99.90
35559;DHT22;21661;50.794;-1.066;2023-06-10T06:49:48;19.00;99.90
35559;DHT22;21661;50.794;-1.066;2023-06-10T06:52:15;19.10;99.90
35559;DHT22;21661;50.794;-1.066;2023-06-10T06:54:40;19.20;99.90
35559;DHT22;21661;50.794;-1.066;2023-06-10T06:57:06;19.30;99.90
35559;DHT22;21661;50.794;-1.066;2023-06-10T06:59:32;19.30;99.90
35559;DHT22;21661;50.794;-1.066;2023-06-10T07:01:58;19.40;99.90
35559;DHT22;21661;50.794;-1.066;2023-06-10T07:04:24;19.40;99.90
35559;DHT22;21661;50.794;-1.066;2023-06-10T07:06:50;19.50;99.90
35559;DHT22;21661;50.794;-1.066;2023-06-10T07:09:15;19.60;99.90
35559;DHT22;21661;50.794;-1.066;2023-06-10T07:11:41;19.60;99.90
35559;DHT22;21661;50.794;-1.066;2023-06-10T07:14:07;19.60;99.90
35559;DHT22;21661;50.794;-1.066;2023-06-10T07:16:33;19.70;99.90
35559;DHT22;21661;50.794;-1.066;2023-06-10T07:18:58;19.70;99.90
35559;DHT22;21661;50.794;-1.066;2023-06-10T07:21:24;19.80;99.90
35559;DHT22;21661;50.794;-1.066;2023-06-10T07:23:50;19.80;99.90
35559;DHT22;21661;50.794;-1.066;2023-06-10T07:26:19;19.90;99.90
35559;DHT22;21661;50.794;-1.066;2023-06-10T07:28:44;20.00;99.90
35559;DHT22;21661;50.794;-1.066;2023-06-10T07:31:10;20.10;99.90
35559;DHT22;21661;50.794;-1.066;2023-06-10T07:33:37;20.10;99.90
35559;DHT22;21661;50.794;-1.066;2023-06-10T07:36:05;20.30;99.90
35559;DHT22;21661;50.794;-1.066;2023-06-10T07:38:30;20.30;99.90
35559;DHT22;21661;50.794;-1.066;2023-06-10T07:40:56;20.40;99.90
35559;DHT22;21661;50.794;-1.066;2023-06-10T07:43:22;20.40;99.90
35559;DHT22;21661;50.794;-1.066;2023-06-10T07:45:47;20.50;99.90
35559;DHT22;21661;50.794;-1.066;2023-06-10T07:48:13;20.50;99.90
35559;DHT22;21661;50.794;-1.066;2023-06-10T07:50:39;20.60;99.90
35559;DHT22;21661;50.794;-1.066;2023-06-10T07:53:05;20.70;99.90
35559;DHT22;21661;50.794;-1.066;2023-06-10T07:55:31;20.80;99.90
35559;DHT22;21661;50.794;-1.066;2023-06-10T07:57:57;20.90;99.90
35559;DHT22;21661;50.794;-1.066;2023-06-10T08:00:22;21.10;99.90
35559;DHT22;21661;50.794;-1.066;2023-06-10T08:02:48;21.20;99.90
35559;DHT22;21661;50.794;-1.066;2023-06-10T08:05:13;21.40;99.90
35559;DHT22;21661;50.794;-1.066;2023-06-10T08:07:40;21.70;99.90
35559;DHT22;21661;50.794;-1.066;2023-06-10T08:10:06;21.80;99.90
35559;DHT22;21661;50.794;-1.066;2023-06-10T08:12:33;22.00;99.90
35559;DHT22;21661;50.794;-1.066;2023-06-10T08:14:59;22.10;99.90
35559;DHT22;21661;50.794;-1.066;2023-06-10T08:17:25;22.20;99.90
35559;DHT22;21661;50.794;-1.066;2023-06-10T08:19:50;22.30;99.90
35559;DHT22;21661;50.794;-1.066;2023-06-10T08:22:16;22.30;99.90
35559;DHT22;21661;50.794;-1.066;2023-06-10T08:24:42;22.40;99.90
35559;DHT22;21661;50.794;-1.066;2023-06-10T08:27:07;22.50;99.90
35559;DHT22;21661;50.794;-1.066;2023-06-10T08:29:33;22.60;99.90
35559;DHT22;21661;50.794;-1.066;2023-06-10T08:31:58;22.60;99.90
35559;DHT22;21661;50.794;-1.066;2023-06-10T08:34:24;22.60;99.90
35559;DHT22;21661;50.794;-1.066;2023-06-10T08:36:50;22.70;99.90
35559;DHT22;21661;50.794;-1.066;2023-06-10T08:39:19;22.70;99.90
35559;DHT22;21661;50.794;-1.066;2023-06-10T08:44:35;22.80;99.90
35559;DHT22;21661;50.794;-1.066;2023-06-10T08:47:07;22.90;99.90
35559;DHT22;21661;50.794;-1.066;2023-06-10T08:49:38;22.90;99.90
35559;DHT22;21661;50.794;-1.066;2023-06-10T08:52:07;23.00;99.90
35559;DHT22;21661;50.794;-1.066;2023-06-10T08:54:35;23.10;99.90
35559;DHT22;21661;50.794;-1.066;2023-06-10T08:57:05;23.20;99.90
35559;DHT22;21661;50.794;-1.066;2023-06-10T08:59:34;23.30;99.90
35559;DHT22;21661;50.794;-1.066;2023-06-10T09:02:00;23.40;99.90
35559;DHT22;21661;50.794;-1.066;2023-06-10T09:04:28;23.40;99.90
35559;DHT22;21661;50.794;-1.066;2023-06-10T09:06:54;23.50;99.90
35559;DHT22;21661;50.794;-1.066;2023-06-10T09:09:21;23.60;99.90
35559;DHT22;21661;50.794;-1.066;2023-06-10T09:11:48;23.60;99.90
35559;DHT22;21661;50.794;-1.066;2023-06-10T09:14:13;23.70;99.90
35559;DHT22;21661;50.794;-1.066;2023-06-10T09:16:39;23.80;99.90
35559;DHT22;21661;50.794;-1.066;2023-06-10T09:19:06;24.00;99.90
35559;DHT22;21661;50.794;-1.066;2023-06-10T09:21:34;24.00;99.90
35559;DHT22;21661;50.794;-1.066;2023-06-10T09:24:01;24.20;99.90
35559;DHT22;21661;50.794;-1.066;2023-06-10T09:26:30;24.20;99.90
35559;DHT22;21661;50.794;-1.066;2023-06-10T09:29:13;24.40;99.90
35559;DHT22;21661;50.794;-1.066;2023-06-10T09:31:40;24.50;99.90
35559;DHT22;21661;50.794;-1.066;2023-06-10T09:34:12;24.60;99.90
35559;DHT22;21661;50.794;-1.066;2023-06-10T09:36:39;24.60;99.90
35559;DHT22;21661;50.794;-1.066;2023-06-10T09:39:13;24.70;99.90
35559;DHT22;21661;50.794;-1.066;2023-06-10T09:41:40;24.80;99.90
35559;DHT22;21661;50.794;-1.066;2023-06-10T09:44:15;25.00;99.90
35559;DHT22;21661;50.794;-1.066;2023-06-10T09:46:41;25.10;99.90
35559;DHT22;21661;50.794;-1.066;2023-06-10T09:49:07;25.30;99.90
35559;DHT22;21661;50.794;-1.066;2023-06-10T09:51:33;25.40;99.90
35559;DHT22;21661;50.794;-1.066;2023-06-10T09:53:59;25.50;99.90
35559;DHT22;21661;50.794;-1.066;2023-06-10T09:56:36;25.50;99.90
35559;DHT22;21661;50.794;-1.066;2023-06-10T09:59:03;25.60;99.90
35559;DHT22;21661;50.794;-1.066;2023-06-10T10:01:31;25.60;99.90
35559;DHT22;21661;50.794;-1.066;2023-06-10T10:03:59;25.70;99.90
35559;DHT22;21661;50.794;-1.066;2023-06-10T10:06:25;25.80;99.90
35559;DHT22;21661;50.794;-1.066;2023-06-10T10:08:51;25.80;99.90
35559;DHT22;21661;50.794;-1.066;2023-06-10T10:11:19;25.80;99.90
35559;DHT22;21661;50.794;-1.066;2023-06-10T10:13:48;25.90;99.90
35559;DHT22;21661;50.794;-1.066;2023-06-10T10:16:17;25.90;99.90
35559;DHT22;21661;50.794;-1.066;2023-06-10T10:18:56;25.90;99.90
35559;DHT22;21661;50.794;-1.066;2023-06-10T10:21:27;25.90;99.90
35559;DHT22;21661;50.794;-1.066;2023-06-10T10:24:07;25.90;99.90
35559;DHT22;21661;50.794;-1.066;2023-06-10T10:26:36;25.80;99.90
35559;DHT22;21661;50.794;-1.066;2023-06-10T10:29:23;25.60;99.90
35559;DHT22;21661;50.794;-1.066;2023-06-10T10:31:51;25.40;99.90
35559;DHT22;21661;50.794;-1.066;2023-06-10T10:34:36;25.40;99.90
35559;DHT22;21661;50.794;-1.066;2023-06-10T10:37:06;25.30;99.90
35559;DHT22;21661;50.794;-1.066;2023-06-10T10:39:34;25.10;99.90
35559;DHT22;21661;50.794;-1.066;2023-06-10T10:42:02;25.10;99.90
35559;DHT22;21661;50.794;-1.066;2023-06-10T10:44:29;25.10;99.90
35559;DHT22;21661;50.794;-1.066;2023-06-10T10:46:55;24.90;99.90
35559;DHT22;21661;50.794;-1.066;2023-06-10T10:49:22;24.80;99.90
35559;DHT22;21661;50.794;-1.066;2023-06-10T10:52:01;24.70;99.90
35559;DHT22;21661;50.794;-1.066;2023-06-10T10:54:35;24.60;99.90
35559;DHT22;21661;50.794;-1.066;2023-06-10T10:57:18;24.60;99.90
35559;DHT22;21661;50.794;-1.066;2023-06-10T10:59:59;24.50;99.90
35559;DHT22;21661;50.794;-1.066;2023-06-10T11:02:42;24.50;99.90
35559;DHT22;21661;50.794;-1.066;2023-06-10T11:05:14;24.50;99.90
35559;DHT22;21661;50.794;-1.066;2023-06-10T11:07:40;24.50;99.90
35559;DHT22;21661;50.794;-1.066;2023-06-10T11:10:09;24.40;99.90
35559;DHT22;21661;50.794;-1.066;2023-06-10T11:12:42;24.40;99.90
35559;DHT22;21661;50.794;-1.066;2023-06-10T11:15:08;24.40;99.90
35559;DHT22;21661;50.794;-1.066;2023-06-10T11:17:33;24.60;99.90
35559;DHT22;21661;50.794;-1.066;2023-06-10T11:19:59;24.50;99.90
35559;DHT22;21661;50.794;-1.066;2023-06-10T11:22:25;24.50;99.90
35559;DHT22;21661;50.794;-1.066;2023-06-10T11:24:51;24.50;99.90
35559;DHT22;21661;50.794;-1.066;2023-06-10T11:27:17;24.50;99.90
35559;DHT22;21661;50.794;-1.066;2023-06-10T11:32:30;24.40;99.90
35559;DHT22;21661;50.794;-1.066;2023-06-10T11:34:57;24.40;99.90
35559;DHT22;21661;50.794;-1.066;2023-06-10T11:37:23;24.40;99.90
35559;DHT22;21661;50.794;-1.066;2023-06-10T11:39:55;24.30;99.90
35559;DHT22;21661;50.794;-1.066;2023-06-10T11:42:22;24.30;99.90
35559;DHT22;21661;50.794;-1.066;2023-06-10T11:44:51;24.20;99.90
35559;DHT22;21661;50.794;-1.066;2023-06-10T11:47:17;24.10;99.90
35559;DHT22;21661;50.794;-1.066;2023-06-10T11:49:44;24.20;99.90
35559;DHT22;21661;50.794;-1.066;2023-06-10T11:52:10;24.30;99.90
35559;DHT22;21661;50.794;-1.066;2023-06-10T11:54:36;24.30;99.90
35559;DHT22;21661;50.794;-1.066;2023-06-10T11:57:02;24.20;99.90
35559;DHT22;21661;50.794;-1.066;2023-06-10T11:59:33;24.10;99.90
35559;DHT22;21661;50.794;-1.066;2023-06-10T12:01:59;24.20;99.90
35559;DHT22;21661;50.794;-1.066;2023-06-10T12:04:24;24.30;99.90
35559;DHT22;21661;50.794;-1.066;2023-06-10T12:06:52;24.20;99.90
35559;DHT22;21661;50.794;-1.066;2023-06-10T12:09:22;24.30;99.90
35559;DHT22;21661;50.794;-1.066;2023-06-10T12:11:51;24.30;99.90
35559;DHT22;21661;50.794;-1.066;2023-06-10T12:14:55;24.40;99.90
35559;DHT22;21661;50.794;-1.066;2023-06-10T12:19:56;24.60;99.90
35559;DHT22;21661;50.794;-1.066;2023-06-10T12:22:22;24.70;99.90
35559;DHT22;21661;50.794;-1.066;2023-06-10T12:24:59;24.50;99.90
35559;DHT22;21661;50.794;-1.066;2023-06-10T12:27:25;24.60;99.90
35559;DHT22;21661;50.794;-1.066;2023-06-10T12:29:52;24.50;99.90
35559;DHT22;21661;50.794;-1.066;2023-06-10T12:32:21;24.40;99.90
35559;DHT22;21661;50.794;-1.066;2023-06-10T12:35:05;24.50;99.90
35559;DHT22;21661;50.794;-1.066;2023-06-10T12:37:31;24.50;99.90
35559;DHT22;21661;50.794;-1.066;2023-06-10T12:40:00;24.50;99.90
35559;DHT22;21661;50.794;-1.066;2023-06-10T12:42:26;24.50;99.90
35559;DHT22;21661;50.794;-1.066;2023-06-10T12:44:55;24.50;99.90
35559;DHT22;21661;50.794;-1.066;2023-06-10T12:47:33;24.50;99.90
35559;DHT22;21661;50.794;-1.066;2023-06-10T12:50:01;24.40;99.90
35559;DHT22;21661;50.794;-1.066;2023-06-10T12:52:27;24.40;99.90
35559;DHT22;21661;50.794;-1.066;2023-06-10T12:54:53;24.50;99.90
35559;DHT22;21661;50.794;-1.066;2023-06-10T12:57:23;24.60;99.90
35559;DHT22;21661;50.794;-1.066;2023-06-10T12:59:49;24.60;99.90
35559;DHT22;21661;50.794;-1.066;2023-06-10T13:02:18;24.70;99.90
35559;DHT22;21661;50.794;-1.066;2023-06-10T13:04:45;24.70;99.90
35559;DHT22;21661;50.794;-1.066;2023-06-10T13:07:11;24.80;99.90
35559;DHT22;21661;50.794;-1.066;2023-06-10T13:09:37;24.90;99.90
35559;DHT22;21661;50.794;-1.066;2023-06-10T13:12:03;24.90;99.90
35559;DHT22;21661;50.794;-1.066;2023-06-10T13:14:29;24.80;99.90
35559;DHT22;21661;50.794;-1.066;2023-06-10T13:16:55;24.80;99.90
35559;DHT22;21661;50.794;-1.066;2023-06-10T13:19:20;24.80;99.90
35559;DHT22;21661;50.794;-1.066;2023-06-10T13:21:47;24.70;99.90
35559;DHT22;21661;50.794;-1.066;2023-06-10T13:24:14;24.70;99.90
35559;DHT22;21661;50.794;-1.066;2023-06-10T13:26:40;24.80;99.90
35559;DHT22;21661;50.794;-1.066;2023-06-10T13:29:06;24.90;99.90
35559;DHT22;21661;50.794;-1.066;2023-06-10T13:31:33;24.90;99.90
35559;DHT22;21661;50.794;-1.066;2023-06-10T13:33:59;24.80;99.90
35559;DHT22;21661;50.794;-1.066;2023-06-10T13:36:24;24.80;99.90
35559;DHT22;21661;50.794;-1.066;2023-06-10T13:38:50;24.80;99.90
35559;DHT22;21661;50.794;-1.066;2023-06-10T13:41:16;24.70;99.90
35559;DHT22;21661;50.794;-1.066;2023-06-10T13:43:42;24.70;99.90
35559;DHT22;21661;50.794;-1.066;2023-06-10T13:46:07;24.80;99.90
35559;DHT22;21661;50.794;-1.066;2023-06-10T13:48:33;24.80;99.90
35559;DHT22;21661;50.794;-1.066;2023-06-10T13:50:59;24.90;99.90
35559;DHT22;21661;50.794;-1.066;2023-06-10T13:53:25;24.90;99.90
35559;DHT22;21661;50.794;-1.066;2023-06-10T13:55:51;24.90;99.90
35559;DHT22;21661;50.794;-1.066;2023-06-10T13:58:17;24.90;99.90
35559;DHT22;21661;50.794;-1.066;2023-06-10T14:00:43;24.70;99.90
35559;DHT22;21661;50.794;-1.066;2023-06-10T14:03:09;24.60;99.90
35559;DHT22;21661;50.794;-1.066;2023-06-10T14:05:34;24.60;99.90
35559;DHT22;21661;50.794;-1.066;2023-06-10T14:08:00;24.60;99.90
35559;DHT22;21661;50.794;-1.066;2023-06-10T14:10:26;24.60;99.90
35559;DHT22;21661;50.794;-1.066;2023-06-10T14:12:51;24.60;99.90
35559;DHT22;21661;50.794;-1.066;2023-06-10T14:15:17;24.50;99.90
35559;DHT22;21661;50.794;-1.066;2023-06-10T14:17:43;24.70;99.90
35559;DHT22;21661;50.794;-1.066;2023-06-10T14:20:09;24.80;99.90
35559;DHT22;21661;50.794;-1.066;2023-06-10T14:22:34;24.90;99.90
35559;DHT22;21661;50.794;-1.066;2023-06-10T14:25:00;24.90;99.90
35559;DHT22;21661;50.794;-1.066;2023-06-10T14:27:25;24.90;99.90
35559;DHT22;21661;50.794;-1.066;2023-06-10T14:29:51;24.90;99.90
35559;DHT22;21661;50.794;-1.066;2023-06-10T14:32:17;24.70;99.90
35559;DHT22;21661;50.794;-1.066;2023-06-10T14:34:42;24.70;99.90
35559;DHT22;21661;50.794;-1.066;2023-06-10T14:37:10;24.70;99.90
35559;DHT22;21661;50.794;-1.066;2023-06-10T14:39:35;24.60;99.90
35559;DHT22;21661;50.794;-1.066;2023-06-10T14:42:01;24.60;99.90
35559;DHT22;21661;50.794;-1.066;2023-06-10T14:44:27;24.50;99.90
35559;DHT22;21661;50.794;-1.066;2023-06-10T14:46:53;24.40;99.90
35559;DHT22;21661;50.794;-1.066;2023-06-10T14:49:18;24.40;99.90
35559;DHT22;21661;50.794;-1.066;2023-06-10T14:51:44;24.20;99.90
35559;DHT22;21661;50.794;-1.066;2023-06-10T14:54:10;24.20;99.90
35559;DHT22;21661;50.794;-1.066;2023-06-10T14:56:36;24.20;99.90
35559;DHT22;21661;50.794;-1.066;2023-06-10T14:59:01;24.20;99.90
35559;DHT22;21661;50.794;-1.066;2023-06-10T15:01:27;24.20;99.90
35559;DHT22;21661;50.794;-1.066;2023-06-10T15:03:52;24.20;99.90
35559;DHT22;21661;50.794;-1.066;2023-06-10T15:06:18;24.20;99.90
35559;DHT22;21661;50.794;-1.066;2023-06-10T15:08:48;24.10;99.90
35559;DHT22;21661;50.794;-1.066;2023-06-10T15:11:14;24.10;99.90
35559;DHT22;21661;50.794;-1.066;2023-06-10T15:13:40;24.10;99.90
35559;DHT22;21661;50.794;-1.066;2023-06-10T15:16:06;24.00;99.90
35559;DHT22;21661;50.794;-1.066;2023-06-10T15:18:32;24.00;99.90
35559;DHT22;21661;50.794;-1.066;2023-06-10T15:20:57;24.10;99.90
35559;DHT22;21661;50.794;-1.066;2023-06-10T15:23:25;24.20;99.90
35559;DHT22;21661;50.794;-1.066;2023-06-10T15:25:51;24.20;99.90